createdAt,value
2023-04-07T00:02:19.729Z,100278.50
2023-04-07T00:06:33.022Z,100274.84
2023-04-07T00:10:45.884Z,100271.38
2023-04-07T00:14:58.322Z,100271.53
2023-04-07T00:19:10.760Z,100268.91
2023-04-07T00:23:23.128Z,100266.09
2023-04-07T00:27:35.573Z,100266.25
2023-04-07T00:31:48.136Z,100256.69
2023-04-07T00:36:00.730Z,100261.97
2023-04-07T00:40:13.332Z,100266.22
2023-04-07T00:44:26.861Z,100267.06
2023-04-07T00:48:39.286Z,100270.44
2023-04-07T00:52:51.992Z,100258.94
2023-04-07T00:57:04.485Z,100270.41
2023-04-07T01:01:24.620Z,100269.69
2023-04-07T01:05:46.856Z,100267.06
2023-04-07T01:10:03.827Z,100274.00
2023-04-07T01:14:25.292Z,100269.63
2023-04-07T01:18:51.520Z,100268.88
2023-04-07T01:23:07.565Z,100268.81
2023-04-07T01:27:38.760Z,100278.31
2023-04-07T01:31:51.837Z,100276.38
2023-04-07T01:36:07.027Z,100280.59
2023-04-07T01:40:21.921Z,100289.63
2023-04-07T01:44:36.055Z,100281.56
2023-04-07T01:48:49.394Z,100283.28
2023-04-07T01:53:04.037Z,100277.03
2023-04-07T01:57:16.637Z,100290.19
2023-04-07T02:01:30.119Z,100290.97
2023-04-07T02:05:43.692Z,100302.97
2023-04-07T02:10:01.440Z,100293.41
2023-04-07T02:14:16.249Z,100286.31
2023-04-07T02:18:47.416Z,100294.13
2023-04-07T02:22:59.995Z,100296.63
2023-04-07T02:27:12.601Z,100295.78
2023-04-07T02:31:25.131Z,100298.34
2023-04-07T02:35:38.964Z,100300.00
2023-04-07T02:39:51.650Z,100302.53
2023-04-07T02:44:06.004Z,100298.91
2023-04-07T02:48:18.502Z,100299.72
2023-04-07T02:52:31.098Z,100301.53
2023-04-07T02:56:43.721Z,100304.00
2023-04-07T03:00:56.303Z,100306.56
2023-04-07T03:05:12.676Z,100318.00
2023-04-07T03:09:25.197Z,100312.97
2023-04-07T03:13:37.725Z,100316.22
2023-04-07T03:17:50.396Z,100323.25
2023-04-07T03:22:03.493Z,100322.06
2023-04-07T03:26:20.789Z,100327.06
2023-04-07T03:30:33.767Z,100322.41
2023-04-07T03:34:46.314Z,100329.59
2023-04-07T03:39:00.202Z,100345.16
2023-04-07T03:43:16.079Z,100333.84
2023-04-07T03:47:30.375Z,100330.19
2023-04-07T03:51:46.962Z,100340.00
2023-04-07T03:56:01.656Z,100334.72
2023-04-07T04:00:32.080Z,100334.00
2023-04-07T04:04:54.166Z,100332.47
2023-04-07T04:09:08.998Z,100343.16
2023-04-07T04:13:25.964Z,100347.75
2023-04-07T04:17:39.504Z,100347.88
2023-04-07T04:21:53.189Z,100352.72
2023-04-07T04:26:07.204Z,100360.44
2023-04-07T04:30:20.264Z,100348.66
2023-04-07T04:34:39.864Z,100357.63
2023-04-07T04:38:52.408Z,100358.34
2023-04-07T04:43:09.268Z,100359.31
2023-04-07T04:47:24.039Z,100362.00
2023-04-07T04:51:36.966Z,100364.81
2023-04-07T04:55:57.720Z,100375.38
2023-04-07T05:00:21.511Z,100374.59
2023-04-07T05:04:37.657Z,100377.50
2023-04-07T05:09:16.252Z,100382.84
2023-04-07T05:13:31.496Z,100384.00
2023-04-07T05:17:50.842Z,100399.03
2023-04-07T05:22:08.697Z,100398.59
2023-04-07T05:26:28.527Z,100398.75
2023-04-07T05:30:40.998Z,100410.22
2023-04-07T05:34:53.741Z,100410.31
2023-04-07T05:39:07.720Z,100404.25
2023-04-07T05:43:20.230Z,100403.59
2023-04-07T05:47:33.065Z,100403.84
2023-04-07T05:51:47.470Z,100403.19
2023-04-07T05:56:01.793Z,100407.69
2023-04-07T06:00:28.330Z,100399.94
2023-04-07T06:04:56.418Z,100402.75
2023-04-07T06:09:10.234Z,100407.16
2023-04-07T06:13:22.821Z,100411.41
2023-04-07T06:17:35.278Z,100406.97
2023-04-07T06:21:47.702Z,100399.22
2023-04-07T06:26:00.883Z,100406.38
2023-04-07T06:30:15.647Z,100413.41
2023-04-07T06:34:28.129Z,100416.84
2023-04-07T06:38:40.614Z,100413.50
2023-04-07T06:42:54.907Z,100417.22
2023-04-07T06:47:17.144Z,100420.72
2023-04-07T06:51:29.606Z,100422.56
2023-04-07T06:55:42.637Z,100432.25
2023-04-07T06:59:55.095Z,100423.44
2023-04-07T07:04:07.717Z,100427.81
2023-04-07T07:08:20.253Z,100426.75
2023-04-07T07:12:33.671Z,100419.19
2023-04-07T07:16:46.095Z,100423.78
2023-04-07T07:20:58.650Z,100429.97
2023-04-07T07:25:11.243Z,100422.75
2023-04-07T07:29:23.767Z,100430.56
2023-04-07T07:33:36.265Z,100428.50
2023-04-07T07:37:49.185Z,100439.09
2023-04-07T07:42:01.879Z,100434.72
2023-04-07T07:46:14.332Z,100443.66
2023-04-07T07:50:26.806Z,100438.81
2023-04-07T07:54:39.239Z,100454.97
2023-04-07T07:58:52.729Z,100455.84
2023-04-07T08:03:05.224Z,100456.94
2023-04-07T08:07:17.730Z,100454.81
2023-04-07T08:11:30.091Z,100459.28
2023-04-07T08:15:42.608Z,100459.47
2023-04-07T08:19:55.005Z,100458.56
2023-04-07T08:24:08.111Z,100453.50
2023-04-07T08:28:21.483Z,100464.03
2023-04-07T08:32:42.117Z,100466.22
2023-04-07T08:36:54.717Z,100479.06
2023-04-07T08:41:12.821Z,100460.84
2023-04-07T08:45:28.790Z,100456.31
2023-04-07T08:49:45.236Z,100461.25
2023-04-07T08:54:14.727Z,100459.41
2023-04-07T08:58:27.922Z,100459.94
2023-04-07T09:02:43.919Z,100464.34
2023-04-07T09:06:56.628Z,100478.03
2023-04-07T09:11:09.235Z,100461.78
2023-04-07T09:15:22.845Z,100468.44
2023-04-07T09:19:35.599Z,100475.66
2023-04-07T09:23:48.528Z,100471.09
2023-04-07T09:28:03.515Z,100474.19
2023-04-07T09:32:41.775Z,100476.72
2023-04-07T09:36:54.954Z,100468.19
2023-04-07T09:41:12.879Z,100462.84
2023-04-07T09:49:56.348Z,100461.16
2023-04-07T09:54:09.336Z,100475.41
2023-04-07T09:58:22.242Z,100469.22
2023-04-07T10:02:36.222Z,100461.34
2023-04-07T10:06:48.899Z,100463.44
2023-04-07T10:11:05.464Z,100458.75
2023-04-07T10:15:18.149Z,100467.94
2023-04-07T10:19:35.033Z,100460.50
2023-04-07T10:24:16.200Z,100461.09
2023-04-07T10:28:30.130Z,100453.66
2023-04-07T10:32:50.393Z,100456.31
2023-04-07T10:37:11.237Z,100451.28
2023-04-07T10:41:40.767Z,100465.81
2023-04-07T10:45:56.553Z,100464.66
2023-04-07T10:50:17.311Z,100458.28
2023-04-07T10:54:30.002Z,100452.19
2023-04-07T10:58:42.797Z,100450.38
2023-04-07T11:02:55.472Z,100455.91
2023-04-07T11:07:08.127Z,100441.75
2023-04-07T11:11:42.176Z,100450.88
2023-04-07T11:15:55.021Z,100431.88
2023-04-07T11:20:08.374Z,100435.16
2023-04-07T11:24:39.559Z,100434.53
2023-04-07T11:28:54.366Z,100432.25
2023-04-07T11:33:08.086Z,100434.44
2023-04-07T11:37:22.469Z,100446.50
2023-04-07T11:41:47.078Z,100445.63
2023-04-07T11:46:16.478Z,100442.09
2023-04-07T11:50:42.826Z,100431.34
2023-04-07T11:54:55.749Z,100433.59
2023-04-07T11:59:08.273Z,100423.47
2023-04-07T12:03:21.082Z,100418.63
2023-04-07T12:07:34.138Z,100430.13
2023-04-07T12:11:50.757Z,100419.41
2023-04-07T12:16:03.661Z,100407.56
2023-04-07T12:20:16.924Z,100416.06
2023-04-07T12:24:29.300Z,100423.25
2023-04-07T12:28:41.946Z,100418.53
2023-04-07T12:32:54.852Z,100426.84
2023-04-07T12:37:07.496Z,100416.16
2023-04-07T12:41:20.117Z,100421.66
2023-04-07T12:45:32.897Z,100420.56
2023-04-07T12:49:45.441Z,100425.53
2023-04-07T12:53:57.822Z,100419.19
2023-04-07T12:58:10.515Z,100428.50
2023-04-07T13:02:23.193Z,100420.88
2023-04-07T13:06:35.777Z,100422.00
2023-04-07T13:10:48.274Z,100416.41
2023-04-07T13:15:01.139Z,100407.75
2023-04-07T13:19:13.890Z,100407.47
2023-04-07T13:23:26.582Z,100415.03
2023-04-07T13:27:39.084Z,100410.88
2023-04-07T13:31:51.515Z,100422.84
2023-04-07T13:36:04.042Z,100401.56
2023-04-07T13:40:16.485Z,100404.81
2023-04-07T13:44:29.688Z,100395.94
2023-04-07T13:48:42.631Z,100391.47
2023-04-07T13:52:55.065Z,100403.56
2023-04-07T13:57:07.674Z,100398.72
2023-04-07T14:01:20.170Z,100405.94
2023-04-07T14:05:32.674Z,100397.25
2023-04-07T14:09:46.526Z,100412.06
2023-04-07T14:13:58.964Z,100412.56
2023-04-07T14:18:11.389Z,100407.75
2023-04-07T14:22:23.919Z,100409.03
2023-04-07T14:26:36.382Z,100418.97
2023-04-07T14:30:48.834Z,100415.16
2023-04-07T14:35:01.636Z,100414.50
2023-04-07T14:39:14.909Z,100426.75
2023-04-07T14:43:28.116Z,100433.75
2023-04-07T14:47:40.619Z,100433.25
2023-04-07T14:51:53.801Z,100425.38
2023-04-07T14:56:07.038Z,100425.75
2023-04-07T15:00:19.686Z,100424.38
2023-04-07T15:04:32.389Z,100431.50
2023-04-07T15:08:45.090Z,100434.03
2023-04-07T15:12:57.519Z,100429.91
2023-04-07T15:17:09.870Z,100424.47
2023-04-07T15:21:22.163Z,100434.81
2023-04-07T15:25:34.620Z,100426.06
2023-04-07T15:29:47.442Z,100427.84
2023-04-07T15:33:59.950Z,100427.22
2023-04-07T15:38:12.437Z,100430.81
2023-04-07T15:42:24.858Z,100434.25
2023-04-07T15:46:37.388Z,100426.66
2023-04-07T15:50:49.930Z,100434.66
2023-04-07T15:55:02.412Z,100435.75
2023-04-07T15:59:15.823Z,100437.75
2023-04-07T16:03:29.307Z,100445.91
2023-04-07T16:07:41.884Z,100449.50
2023-04-07T16:11:55.269Z,100455.75
2023-04-07T16:16:07.993Z,100449.94
2023-04-07T16:20:20.703Z,100450.84
2023-04-07T16:24:33.173Z,100445.72
2023-04-07T16:28:45.560Z,100442.31
2023-04-07T16:32:58.298Z,100446.06
2023-04-07T16:37:10.742Z,100450.66
2023-04-07T16:41:23.277Z,100448.09
2023-04-07T16:45:36.018Z,100450.81
2023-04-07T16:49:48.380Z,100448.22
2023-04-07T16:54:00.955Z,100458.06
2023-04-07T16:58:13.383Z,100454.63
2023-04-07T17:02:28.326Z,100453.84
2023-04-07T17:06:40.870Z,100447.72
2023-04-07T17:10:53.316Z,100452.22
2023-04-07T17:15:07.106Z,100451.38
2023-04-07T17:19:19.558Z,100447.00
2023-04-07T17:23:32.148Z,100459.41
2023-04-07T17:27:44.592Z,100451.47
2023-04-07T17:31:57.337Z,100465.63
2023-04-07T17:36:09.779Z,100465.63
2023-04-07T17:40:22.715Z,100468.28
2023-04-07T17:44:35.162Z,100483.34
2023-04-07T17:48:48.385Z,100486.00
2023-04-07T17:53:01.158Z,100501.88
2023-04-07T17:57:14.718Z,100496.59
2023-04-07T18:01:27.346Z,100511.63
2023-04-07T18:05:44.196Z,100524.84
2023-04-07T18:09:58.282Z,100532.78
2023-04-07T18:14:10.746Z,100539.84
2023-04-07T18:18:23.203Z,100546.03
2023-04-07T18:22:35.744Z,100544.25
2023-04-07T18:26:48.332Z,100547.78
2023-04-07T18:31:02.779Z,100558.31
2023-04-07T18:35:16.857Z,100560.94
2023-04-07T18:39:29.213Z,100563.56
2023-04-07T18:43:42.536Z,100568.84
2023-04-07T18:47:55.160Z,100578.47
2023-04-07T18:52:08.108Z,100573.19
2023-04-07T18:56:22.992Z,100581.94
2023-04-07T19:00:35.651Z,100589.81
2023-04-07T19:04:48.298Z,100596.84
2023-04-07T19:09:00.826Z,100599.41
2023-04-07T19:13:13.315Z,100596.69
2023-04-07T19:17:28.737Z,100610.72
2023-04-07T19:21:41.539Z,100603.69
2023-04-07T19:25:54.154Z,100612.41
2023-04-07T19:30:07.210Z,100618.56
2023-04-07T19:34:21.421Z,100622.91
2023-04-07T19:38:33.859Z,100622.09
2023-04-07T19:42:46.171Z,100622.94
2023-04-07T19:46:58.717Z,100622.13
2023-04-07T19:51:11.348Z,100622.88
2023-04-07T19:55:24.299Z,100617.50
2023-04-07T19:59:36.719Z,100621.81
2023-04-07T20:03:49.454Z,100617.72
2023-04-07T20:08:02.182Z,100623.03
2023-04-07T20:12:15.223Z,100620.22
2023-04-07T20:16:30.268Z,100623.84
2023-04-07T20:20:42.698Z,100620.22
2023-04-07T20:24:55.368Z,100617.50
2023-04-07T20:29:08.479Z,100616.31
2023-04-07T20:33:21.059Z,100620.47
2023-04-07T20:37:33.567Z,100622.16
2023-04-07T20:41:46.170Z,100616.84
2023-04-07T20:45:59.609Z,100618.47
2023-04-07T20:50:12.167Z,100617.06
2023-04-07T20:54:24.565Z,100625.78
2023-04-07T20:58:37.496Z,100620.97
2023-04-07T21:02:50.162Z,100616.44
2023-04-07T21:07:02.700Z,100612.34
2023-04-07T21:11:15.030Z,100606.94
2023-04-07T21:15:27.473Z,100599.91
2023-04-07T21:19:40.046Z,100594.72
2023-04-07T21:23:52.482Z,100592.81
2023-04-07T21:28:04.921Z,100585.38
2023-04-07T21:32:17.259Z,100584.22
2023-04-07T21:36:29.574Z,100586.19
2023-04-07T21:40:42.333Z,100583.91
2023-04-07T21:44:54.599Z,100575.66
2023-04-07T21:49:07.232Z,100565.31
2023-04-07T21:53:19.757Z,100569.19
2023-04-07T21:57:32.399Z,100568.25
2023-04-07T22:01:47.222Z,100567.63
2023-04-07T22:06:00.444Z,100562.91
2023-04-07T22:10:13.288Z,100570.91
2023-04-07T22:14:26.685Z,100558.16
2023-04-07T22:18:39.178Z,100565.06
2023-04-07T22:22:51.761Z,100561.91
2023-04-07T22:27:06.502Z,100554.66
2023-04-07T22:31:18.955Z,100554.94
2023-04-07T22:35:31.806Z,100549.78
2023-04-07T22:39:46.527Z,100548.50
2023-04-07T22:44:00.432Z,100552.47
2023-04-07T22:48:12.981Z,100548.91
2023-04-07T22:52:25.611Z,100550.59
2023-04-07T22:56:38.088Z,100550.38
2023-04-07T23:00:50.736Z,100554.22
2023-04-07T23:05:03.588Z,100560.19
2023-04-07T23:09:16.050Z,100564.66
2023-04-07T23:13:28.809Z,100578.28
2023-04-07T23:17:41.518Z,100566.53
2023-04-07T23:21:53.998Z,100574.19
2023-04-07T23:26:09.281Z,100581.78
2023-04-07T23:30:21.783Z,100579.97
2023-04-07T23:34:34.279Z,100585.13
2023-04-07T23:38:47.144Z,100590.56
2023-04-07T23:42:59.525Z,100598.22
2023-04-07T23:47:11.858Z,100593.28
2023-04-07T23:51:24.223Z,100599.16
2023-04-07T23:55:36.582Z,100602.88
2023-04-07T23:59:48.945Z,100599.22
